Time,TemperatureF,DewpointF,PressureIn,WindDirection,WindDirectionDegrees,WindSpeedMPH,WindSpeedGustMPH,Humidity,HourlyPrecipIn,Conditions,Clouds,dailyrainin,SolarRadiationWatts/m^2,SoftwareType,DateUTC
2013-07-17 00:02:00,77.0,68.0,-100.00,SW,229,1.0,6.0,75,0.00,,,-99.99,0.000000,,2013-07-17 05:02:00,
2013-07-17 00:10:00,75.0,69.0,-100.00,SW,226,0.0,6.0,81,0.00,,,-99.99,0.000000,,2013-07-17 05:10:00,
2013-07-17 00:43:00,75.0,69.0,-100.00,SW,226,0.0,6.0,81,0.00,,,-99.99,0.000000,,2013-07-17 05:43:00,
2013-07-17 00:52:00,75.0,69.0,-100.00,SW,226,0.0,6.0,81,0.00,,,-99.99,0.000000,,2013-07-17 05:52:00,
2013-07-17 01:01:00,75.0,69.0,-100.00,SW,226,0.0,6.0,81,0.00,,,-99.99,0.000000,,2013-07-17 06:01:00,
2013-07-17 01:10:00,73.0,69.0,-100.00,SSW,204,0.0,5.0,87,0.00,,,-99.99,0.000000,,2013-07-17 06:10:00,
2013-07-17 01:43:00,73.0,69.0,-100.00,SSW,204,0.0,5.0,87,0.00,,,-99.99,0.000000,,2013-07-17 06:43:00,
2013-07-17 01:52:00,73.0,69.0,-100.00,SSW,204,0.0,5.0,87,0.00,,,-99.99,0.000000,,2013-07-17 06:52:00,
2013-07-17 02:01:00,73.0,69.0,-100.00,SSW,204,0.0,5.0,87,0.00,,,-99.99,0.000000,,2013-07-17 07:01:00,
2013-07-17 02:10:00,71.0,68.0,-100.00,WSW,248,0.0,4.0,90,0.00,,,-99.99,0.000000,,2013-07-17 07:10:00,
2013-07-17 02:42:00,71.0,68.0,-100.00,WSW,248,0.0,4.0,90,0.00,,,-99.99,0.000000,,2013-07-17 07:42:00,
2013-07-17 02:52:00,71.0,68.0,-100.00,WSW,248,0.0,4.0,90,0.00,,,-99.99,0.000000,,2013-07-17 07:52:00,
2013-07-17 03:01:00,71.0,68.0,-100.00,WSW,248,0.0,4.0,90,0.00,,,-99.99,0.000000,,2013-07-17 08:01:00,
2013-07-17 03:10:00,72.0,69.0,-100.00,SW,214,1.0,4.0,90,0.00,,,-99.99,0.000000,,2013-07-17 08:10:00,
2013-07-17 03:32:00,72.0,69.0,-100.00,SW,214,1.0,4.0,90,0.00,,,-99.99,0.000000,,2013-07-17 08:32:00,
2013-07-17 03:43:00,72.0,69.0,-100.00,SW,214,1.0,4.0,90,0.00,,,-99.99,0.000000,,2013-07-17 08:43:00,
2013-07-17 03:53:00,72.0,69.0,-100.00,SW,214,1.0,4.0,90,0.00,,,-99.99,0.000000,,2013-07-17 08:53:00,
2013-07-17 04:02:00,72.0,69.0,-100.00,SW,214,1.0,4.0,90,0.00,,,-99.99,0.000000,,2013-07-17 09:02:00,
2013-07-17 04:10:00,72.0,68.0,-100.00,SW,236,1.0,5.0,88,0.00,,,-99.99,0.000000,,2013-07-17 09:10:00,
2013-07-17 04:43:00,72.0,68.0,-100.00,SW,236,1.0,5.0,88,0.00,,,-99.99,0.000000,,2013-07-17 09:43:00,
2013-07-17 04:52:00,72.0,68.0,-100.00,SW,236,1.0,5.0,88,0.00,,,-99.99,0.000000,,2013-07-17 09:52:00,
2013-07-17 05:01:00,72.0,68.0,-100.00,SW,236,1.0,5.0,88,0.00,,,-99.99,0.000000,,2013-07-17 10:01:00,
2013-07-17 05:10:00,71.0,68.0,-100.00,WSW,239,0.0,4.0,91,0.00,,,-99.99,0.000000,,2013-07-17 10:10:00,
2013-07-17 05:43:00,71.0,68.0,-100.00,WSW,239,0.0,4.0,91,0.00,,,-99.99,0.000000,,2013-07-17 10:43:00,
2013-07-17 05:52:00,71.0,68.0,-100.00,WSW,239,0.0,4.0,91,0.00,,,-99.99,0.000000,,2013-07-17 10:52:00,
2013-07-17 06:02:00,71.0,68.0,-100.00,WSW,239,0.0,4.0,91,0.00,,,-99.99,0.000000,,2013-07-17 11:02:00,
2013-07-17 06:10:00,70.0,68.0,-100.00,SW,219,0.0,4.0,95,0.00,,,-99.99,7.000000,,2013-07-17 11:10:00,
2013-07-17 06:42:00,70.0,68.0,-100.00,SW,219,0.0,4.0,95,0.00,,,-99.99,7.000000,,2013-07-17 11:42:00,
2013-07-17 06:52:00,70.0,68.0,-100.00,SW,219,0.0,4.0,95,0.00,,,-99.99,7.000000,,2013-07-17 11:52:00,
2013-07-17 07:01:00,70.0,68.0,-100.00,SW,219,0.0,4.0,95,0.00,,,-99.99,7.000000,,2013-07-17 12:01:00,
2013-07-17 07:10:00,74.0,69.0,-100.00,SW,233,2.0,6.0,84,0.00,,,-99.99,27.000000,,2013-07-17 12:10:00,
2013-07-17 07:43:00,74.0,69.0,-100.00,SW,233,2.0,6.0,84,0.00,,,-99.99,27.000000,,2013-07-17 12:43:00,
2013-07-17 07:53:00,74.0,69.0,-100.00,SW,233,2.0,6.0,84,0.00,,,-99.99,27.000000,,2013-07-17 12:53:00,
2013-07-17 08:01:00,74.0,69.0,-100.00,SW,233,2.0,6.0,84,0.00,,,-99.99,27.000000,,2013-07-17 13:01:00,
2013-07-17 08:10:00,77.0,69.0,-100.00,WSW,249,3.0,8.0,76,0.00,,,-99.99,67.000000,,2013-07-17 13:10:00,
2013-07-17 08:43:00,77.0,69.0,-100.00,WSW,249,3.0,8.0,76,0.00,,,-99.99,67.000000,,2013-07-17 13:43:00,
2013-07-17 08:53:00,77.0,69.0,-100.00,WSW,249,3.0,8.0,76,0.00,,,-99.99,67.000000,,2013-07-17 13:53:00,
2013-07-17 09:02:00,77.0,69.0,-100.00,WSW,249,3.0,8.0,76,0.00,,,-99.99,67.000000,,2013-07-17 14:02:00,
2013-07-17 09:10:00,80.0,69.0,-100.00,West,272,3.0,7.0,69,0.00,,,-99.99,201.000000,,2013-07-17 14:10:00,
2013-07-17 09:32:00,80.0,69.0,-100.00,West,272,3.0,7.0,69,0.00,,,-99.99,201.000000,,2013-07-17 14:32:00,
2013-07-17 09:43:00,80.0,69.0,-100.00,West,272,3.0,7.0,69,0.00,,,-99.99,201.000000,,2013-07-17 14:43:00,
2013-07-17 09:52:00,80.0,69.0,-100.00,West,272,3.0,7.0,69,0.00,,,-99.99,201.000000,,2013-07-17 14:52:00,
2013-07-17 10:02:00,80.0,69.0,-100.00,West,272,3.0,7.0,69,0.00,,,-99.99,201.000000,,2013-07-17 15:02:00,
2013-07-17 10:10:00,84.0,66.0,-100.00,WNW,302,5.0,14.0,55,0.00,,,-99.99,546.000000,,2013-07-17 15:10:00,
2013-07-17 10:32:00,84.0,66.0,-100.00,WNW,302,5.0,14.0,55,0.00,,,-99.99,546.000000,,2013-07-17 15:32:00,
2013-07-17 10:43:00,84.0,66.0,-100.00,WNW,302,5.0,14.0,55,0.00,,,-99.99,546.000000,,2013-07-17 15:43:00,
2013-07-17 10:52:00,84.0,66.0,-100.00,WNW,302,5.0,14.0,55,0.00,,,-99.99,546.000000,,2013-07-17 15:52:00,
2013-07-17 11:02:00,84.0,66.0,-100.00,WNW,302,5.0,14.0,55,0.00,,,-99.99,546.000000,,2013-07-17 16:02:00,
2013-07-17 12:10:00,89.0,65.0,-100.00,West,278,5.0,14.0,46,-99.99,,,0.00,787.000000,,2013-07-17 17:10:00,
2013-07-17 12:43:00,89.0,65.0,-100.00,West,278,5.0,14.0,46,-99.99,,,0.00,787.000000,,2013-07-17 17:43:00,
2013-07-17 12:52:00,89.0,65.0,-100.00,West,278,5.0,14.0,46,-99.99,,,0.00,787.000000,,2013-07-17 17:52:00,
2013-07-17 13:01:00,89.0,65.0,-100.00,West,278,5.0,14.0,46,-99.99,,,0.00,787.000000,,2013-07-17 18:01:00,
2013-07-17 13:10:00,88.0,65.0,-100.00,WSW,237,5.0,14.0,46,0.00,,,0.00,750.000000,,2013-07-17 18:10:00,
2013-07-17 13:43:00,88.0,65.0,-100.00,WSW,237,5.0,14.0,46,0.00,,,0.00,750.000000,,2013-07-17 18:43:00,
2013-07-17 13:52:00,88.0,65.0,-100.00,WSW,237,5.0,14.0,46,0.00,,,0.00,750.000000,,2013-07-17 18:52:00,
2013-07-17 14:01:00,88.0,65.0,-100.00,WSW,237,5.0,14.0,46,0.00,,,0.00,750.000000,,2013-07-17 19:01:00,
2013-07-17 14:10:00,88.0,65.0,-100.00,WSW,237,5.0,12.0,46,0.00,,,0.00,599.000000,,2013-07-17 19:10:00,
2013-07-17 14:43:00,88.0,65.0,-100.00,WSW,237,5.0,12.0,46,0.00,,,0.00,599.000000,,2013-07-17 19:43:00,
2013-07-17 14:53:00,88.0,65.0,-100.00,WSW,237,5.0,12.0,46,0.00,,,0.00,599.000000,,2013-07-17 19:53:00,
2013-07-17 15:02:00,88.0,65.0,-100.00,WSW,237,5.0,12.0,46,0.00,,,0.00,599.000000,,2013-07-17 20:02:00,
2013-07-17 15:10:00,91.0,65.0,-100.00,WSW,252,5.0,14.0,42,0.00,,,0.00,715.000000,,2013-07-17 20:10:00,
2013-07-17 15:43:00,91.0,65.0,-100.00,WSW,252,5.0,14.0,42,0.00,,,0.00,715.000000,,2013-07-17 20:43:00,
2013-07-17 15:53:00,91.0,65.0,-100.00,WSW,252,5.0,14.0,42,0.00,,,0.00,715.000000,,2013-07-17 20:53:00,
2013-07-17 16:02:00,91.0,65.0,-100.00,WSW,252,5.0,14.0,42,0.00,,,0.00,715.000000,,2013-07-17 21:02:00,
2013-07-17 16:10:00,87.0,67.0,-100.00,WSW,249,3.0,12.0,51,0.00,,,0.00,392.000000,,2013-07-17 21:10:00,
2013-07-17 16:42:00,87.0,67.0,-100.00,WSW,249,3.0,12.0,51,0.00,,,0.00,392.000000,,2013-07-17 21:42:00,
2013-07-17 16:53:00,87.0,67.0,-100.00,WSW,249,3.0,12.0,51,0.00,,,0.00,392.000000,,2013-07-17 21:53:00,
2013-07-17 17:01:00,87.0,67.0,-100.00,WSW,249,3.0,12.0,51,0.00,,,0.00,392.000000,,2013-07-17 22:01:00,
2013-07-17 17:10:00,89.0,68.0,-100.00,WSW,252,4.0,11.0,51,0.00,,,0.00,335.000000,,2013-07-17 22:10:00,
2013-07-17 17:43:00,89.0,68.0,-100.00,WSW,252,4.0,11.0,51,0.00,,,0.00,335.000000,,2013-07-17 22:43:00,
2013-07-17 17:53:00,89.0,68.0,-100.00,WSW,252,4.0,11.0,51,0.00,,,0.00,335.000000,,2013-07-17 22:53:00,
2013-07-17 18:02:00,89.0,68.0,-100.00,WSW,252,4.0,11.0,51,0.00,,,0.00,335.000000,,2013-07-17 23:02:00,
2013-07-17 18:10:00,89.0,67.0,-100.00,WSW,243,4.0,10.0,49,0.00,,,0.00,359.000000,,2013-07-17 23:10:00,
2013-07-17 18:33:00,89.0,67.0,-100.00,WSW,243,4.0,10.0,49,0.00,,,0.00,359.000000,,2013-07-17 23:33:00,
2013-07-17 18:43:00,89.0,67.0,-100.00,WSW,243,4.0,10.0,49,0.00,,,0.00,359.000000,,2013-07-17 23:43:00,
2013-07-17 18:52:00,89.0,67.0,-100.00,WSW,243,4.0,10.0,49,0.00,,,0.00,359.000000,,2013-07-17 23:52:00,
2013-07-17 19:01:00,89.0,67.0,-100.00,WSW,243,4.0,10.0,49,0.00,,,0.00,359.000000,,2013-07-18 00:01:00,
2013-07-17 19:10:00,87.0,67.0,-100.00,WSW,258,3.0,11.0,51,0.00,,,-99.99,200.000000,,2013-07-18 00:10:00,
2013-07-17 19:43:00,87.0,67.0,-100.00,WSW,258,3.0,11.0,51,0.00,,,-99.99,200.000000,,2013-07-18 00:43:00,
2013-07-17 19:52:00,87.0,67.0,-100.00,WSW,258,3.0,11.0,51,0.00,,,-99.99,200.000000,,2013-07-18 00:52:00,
2013-07-17 20:01:00,87.0,67.0,-100.00,WSW,258,3.0,11.0,51,0.00,,,-99.99,200.000000,,2013-07-18 01:01:00,
2013-07-17 20:10:00,82.0,67.0,-100.00,SSW,211,1.0,10.0,61,0.00,,,0.00,55.000000,,2013-07-18 01:10:00,
2013-07-17 20:32:00,82.0,67.0,-100.00,SSW,211,1.0,10.0,61,0.00,,,0.00,55.000000,,2013-07-18 01:32:00,
2013-07-17 20:43:00,82.0,67.0,-100.00,SSW,211,1.0,10.0,61,0.00,,,0.00,55.000000,,2013-07-18 01:43:00,
2013-07-17 20:53:00,82.0,67.0,-100.00,SSW,211,1.0,10.0,61,0.00,,,0.00,55.000000,,2013-07-18 01:53:00,
2013-07-17 21:02:00,82.0,67.0,-100.00,SSW,211,1.0,10.0,61,0.00,,,0.00,55.000000,,2013-07-18 02:02:00,
2013-07-17 21:10:00,77.0,69.0,-100.00,SW,214,0.0,3.0,77,0.00,,,0.00,3.000000,,2013-07-18 02:10:00,
2013-07-17 21:43:00,77.0,69.0,-100.00,SW,214,0.0,3.0,77,0.00,,,0.00,3.000000,,2013-07-18 02:43:00,
2013-07-17 21:52:00,77.0,69.0,-100.00,SW,214,0.0,3.0,77,0.00,,,0.00,3.000000,,2013-07-18 02:52:00,
2013-07-17 22:01:00,77.0,69.0,-100.00,SW,214,0.0,3.0,77,0.00,,,0.00,3.000000,,2013-07-18 03:01:00,
2013-07-17 22:10:00,75.0,70.0,-100.00,SSW,208,0.0,3.0,85,0.00,,,0.00,0.000000,,2013-07-18 03:10:00,
2013-07-17 22:43:00,75.0,70.0,-100.00,SSW,208,0.0,3.0,85,0.00,,,0.00,0.000000,,2013-07-18 03:43:00,
2013-07-17 22:52:00,75.0,70.0,-100.00,SSW,208,0.0,3.0,85,0.00,,,0.00,0.000000,,2013-07-18 03:52:00,
2013-07-17 23:02:00,75.0,70.0,-100.00,SSW,208,0.0,3.0,85,0.00,,,0.00,0.000000,,2013-07-18 04:02:00,
2013-07-17 23:10:00,78.0,69.0,-100.00,SW,224,2.0,7.0,74,0.00,,,0.00,0.000000,,2013-07-18 04:10:00,
2013-07-17 23:32:00,78.0,69.0,-100.00,SW,224,2.0,7.0,74,0.00,,,0.00,0.000000,,2013-07-18 04:32:00,
2013-07-17 23:43:00,78.0,69.0,-100.00,SW,224,2.0,7.0,74,0.00,,,0.00,0.000000,,2013-07-18 04:43:00,
2013-07-17 23:52:00,78.0,69.0,-100.00,SW,224,2.0,7.0,74,0.00,,,0.00,0.000000,,2013-07-18 04:52:00,